Time;durP1;ratioP1;P1;durP2;ratioP2;P2;SDS_P1;SDS_P2;PMS_P1;PMS_P2;Temp;Humidity;BMP_temperature;BMP_pressure;BME280_temperature;BME280_humidity;BME280_pressure;Samples;Min_cycle;Max_cycle;Signal;HPM_P1;HPM_P2
2024/04/19 00:03:54;;;;;;;6.22;1.05;;;7.20;99.90;;;;;;13404656;26;20019;-77
2024/04/19 00:09:57;;;;;;;5.07;1.42;;;7.10;99.90;;;;;;13368663;26;20026;-77
2024/04/19 00:16:02;;;;;;;5.50;1.30;;;7.20;99.90;;;;;;13388880;26;20413;-77
2024/04/19 00:22:04;;;;;;;5.60;1.88;;;7.10;99.90;;;;;;13382996;26;19999;-77
2024/04/19 00:28:06;;;;;;;2.92;1.60;;;7.10;99.90;;;;;;13377462;26;20067;-78
2024/04/19 00:34:08;;;;;;;5.82;1.80;;;7.10;99.90;;;;;;13381412;26;20951;-78
2024/04/19 00:40:12;;;;;;;6.50;2.13;;;7.10;99.90;;;;;;13388015;26;20012;-78
2024/04/19 00:46:15;;;;;;;6.40;2.30;;;7.00;99.90;;;;;;13349961;26;20809;-77
2024/04/19 00:52:19;;;;;;;4.32;1.98;;;7.00;99.90;;;;;;13425840;26;20451;-83
2024/04/19 00:58:22;;;;;;;4.90;2.00;;;6.90;99.90;;;;;;13384023;26;20007;-81
2024/04/19 01:04:27;;;;;;;7.25;1.92;;;6.90;99.90;;;;;;13403829;26;20084;-78
2024/04/19 01:10:29;;;;;;;5.05;2.05;;;7.00;99.90;;;;;;13407469;26;20041;-77
2024/04/19 01:16:31;;;;;;;3.90;1.95;;;7.10;99.90;;;;;;13407976;26;20023;-77
2024/04/19 01:22:33;;;;;;;10.82;2.10;;;7.10;99.90;;;;;;13408970;26;20011;-77
2024/04/19 01:28:35;;;;;;;6.75;2.08;;;7.00;99.90;;;;;;13410779;26;20026;-77
2024/04/19 01:34:39;;;;;;;6.03;2.03;;;6.70;99.90;;;;;;13376695;26;20364;-77
2024/04/19 01:40:41;;;;;;;3.63;1.80;;;6.50;99.90;;;;;;13383300;26;20019;-78
2024/04/19 01:46:43;;;;;;;4.72;2.20;;;6.50;99.90;;;;;;13382201;26;20744;-78
2024/04/19 01:52:46;;;;;;;5.07;2.10;;;6.40;99.90;;;;;;13379587;26;20447;-79
2024/04/19 01:58:49;;;;;;;5.60;2.72;;;6.20;99.90;;;;;;13374041;26;20356;-79
2024/04/19 02:04:51;;;;;;;3.83;2.53;;;6.10;99.90;;;;;;13385642;26;20050;-76
2024/04/19 02:10:59;;;;;;;5.72;3.08;;;5.90;99.90;;;;;;13409255;26;20008;-79
2024/04/19 02:17:01;;;;;;;4.63;2.65;;;6.00;99.90;;;;;;13409254;26;20015;-79
2024/04/19 02:23:03;;;;;;;5.05;3.10;;;5.90;99.90;;;;;;13407972;26;20004;-76
2024/04/19 02:35:27;;;;;;;5.55;3.63;;;5.50;99.90;;;;;;13442825;26;20015;-80
2024/04/19 02:41:29;;;;;;;6.57;4.15;;;5.20;99.90;;;;;;13449240;26;20023;-76
2024/04/19 02:47:31;;;;;;;6.15;4.53;;;5.20;99.90;;;;;;13407125;26;20352;-77
2024/04/19 02:53:33;;;;;;;6.53;4.68;;;5.10;99.90;;;;;;13405382;26;20018;-85
2024/04/19 02:59:39;;;;;;;9.25;5.75;;;5.10;99.90;;;;;;13410849;26;20475;-88
2024/04/19 03:05:42;;;;;;;10.20;6.68;;;5.00;99.90;;;;;;13417286;26;20007;-85
2024/04/19 03:11:44;;;;;;;11.57;7.50;;;5.00;99.90;;;;;;13440416;26;20051;-84
2024/04/19 03:17:46;;;;;;;13.85;7.88;;;5.10;99.90;;;;;;13411564;26;20045;-85
2024/04/19 03:23:48;;;;;;;11.93;8.00;;;5.00;99.90;;;;;;13443044;26;20042;-89
2024/04/19 03:29:55;;;;;;;9.77;6.10;;;5.20;99.90;;;;;;13413369;26;20008;-85
2024/04/19 03:35:58;;;;;;;11.07;5.45;;;5.10;99.90;;;;;;13435112;26;20004;-78
2024/04/19 03:42:00;;;;;;;8.10;5.00;;;5.00;99.90;;;;;;13414112;26;20039;-82
2024/04/19 03:48:02;;;;;;;5.57;4.28;;;5.10;99.90;;;;;;13383796;26;20007;-80
2024/04/19 03:54:04;;;;;;;7.95;4.30;;;5.00;99.90;;;;;;13411789;26;20077;-78
2024/04/19 04:00:07;;;;;;;5.70;3.60;;;5.10;99.90;;;;;;13387765;26;23508;-79
2024/04/19 04:06:09;;;;;;;6.68;3.25;;;5.00;99.90;;;;;;13425883;26;20377;-82
2024/04/19 04:12:11;;;;;;;4.80;3.03;;;5.00;99.90;;;;;;13388130;26;20022;-81
2024/04/19 04:18:13;;;;;;;3.75;3.08;;;5.10;99.90;;;;;;13398563;26;20041;-80
2024/04/19 04:24:16;;;;;;;4.60;3.50;;;5.00;99.90;;;;;;13422042;26;20011;-79
2024/04/19 04:30:18;;;;;;;7.03;3.55;;;5.00;99.90;;;;;;13393277;26;20008;-81
2024/04/19 04:36:20;;;;;;;6.93;4.78;;;5.10;99.90;;;;;;13415484;26;20016;-86
2024/04/19 04:42:23;;;;;;;5.07;4.13;;;5.00;99.90;;;;;;13391541;26;20008;-83
2024/04/19 04:48:25;;;;;;;4.60;3.90;;;5.00;99.90;;;;;;13424681;26;20035;-85
2024/04/19 04:54:27;;;;;;;5.93;4.50;;;5.10;99.90;;;;;;13387516;26;20683;-84
2024/04/19 05:00:29;;;;;;;5.88;4.00;;;5.20;99.90;;;;;;13415128;26;20003;-79
2024/04/19 05:06:32;;;;;;;7.90;4.70;;;5.20;99.90;;;;;;13415352;26;20014;-84
2024/04/19 05:12:34;;;;;;;5.78;4.35;;;5.20;99.90;;;;;;13397453;26;20026;-80
2024/04/19 05:18:37;;;;;;;6.63;4.50;;;5.30;99.90;;;;;;13424151;26;20409;-85
2024/04/19 05:24:40;;;;;;;6.25;4.47;;;5.30;99.90;;;;;;13446987;26;20023;-85
2024/04/19 05:30:42;;;;;;;6.97;4.93;;;5.40;99.90;;;;;;13416378;26;20011;-80
2024/04/19 05:36:44;;;;;;;7.05;5.30;;;5.40;99.90;;;;;;13449660;26;20023;-80
2024/04/19 05:42:47;;;;;;;8.30;6.13;;;5.40;99.90;;;;;;13447982;26;20032;-83
2024/04/19 05:48:50;;;;;;;8.10;6.68;;;5.50;99.90;;;;;;13388974;26;20011;-80
2024/04/19 05:54:52;;;;;;;8.18;6.55;;;5.60;99.90;;;;;;13378569;26;21022;-82
2024/04/19 06:00:55;;;;;;;7.55;6.13;;;5.70;99.90;;;;;;13404057;26;20026;-80
2024/04/19 06:06:58;;;;;;;9.48;6.32;;;5.70;99.90;;;;;;13372002;26;20020;-89
2024/04/19 06:13:00;;;;;;;8.13;6.07;;;5.60;99.90;;;;;;13410250;26;20008;-79
2024/04/19 06:19:02;;;;;;;8.02;6.05;;;5.70;99.90;;;;;;13356924;26;20459;-81
2024/04/19 06:25:05;;;;;;;7.28;6.05;;;5.70;99.90;;;;;;13364180;26;20655;-79
2024/04/19 06:31:12;;;;;;;7.93;6.10;;;5.70;99.90;;;;;;13407112;26;20065;-78
2024/04/19 06:37:14;;;;;;;6.05;5.30;;;5.80;99.90;;;;;;13369882;26;20076;-80
2024/04/19 06:43:17;;;;;;;6.95;6.05;;;5.70;99.90;;;;;;13407957;26;20071;-80
2024/04/19 06:49:19;;;;;;;9.35;5.75;;;5.70;99.90;;;;;;13361142;26;20403;-78
2024/04/19 06:55:22;;;;;;;7.35;5.50;;;5.80;99.90;;;;;;13393175;26;20004;-80
2024/04/19 07:01:24;;;;;;;7.05;6.10;;;6.00;99.90;;;;;;13365252;26;20100;-81
2024/04/19 07:07:29;;;;;;;6.85;6.03;;;6.10;99.90;;;;;;13387038;26;20075;-82
2024/04/19 07:13:32;;;;;;;6.70;6.10;;;6.00;99.90;;;;;;13397301;26;20004;-80
2024/04/19 07:19:34;;;;;;;6.40;5.80;;;6.10;99.90;;;;;;13398277;26;20007;-84
2024/04/19 07:25:36;;;;;;;6.88;6.22;;;6.20;99.90;;;;;;13371409;26;23044;-78
2024/04/19 07:31:39;;;;;;;6.88;6.18;;;6.20;99.90;;;;;;13367054;26;20011;-79
2024/04/19 07:37:41;;;;;;;7.55;6.47;;;6.30;99.90;;;;;;13404088;26;20022;-79
2024/04/19 07:43:43;;;;;;;7.20;6.47;;;6.40;99.90;;;;;;13368753;26;20004;-78
2024/04/19 07:49:53;;;;;;;6.60;6.00;;;6.50;99.90;;;;;;13396126;26;20536;-79
2024/04/19 07:55:56;;;;;;;6.80;6.05;;;6.60;99.90;;;;;;13407507;26;20059;-80
2024/04/19 08:01:58;;;;;;;6.28;5.68;;;6.70;99.90;;;;;;13402711;26;20012;-79
2024/04/19 08:08:00;;;;;;;8.50;6.22;;;6.70;99.90;;;;;;13399590;26;20004;-79
2024/04/19 08:14:02;;;;;;;6.88;6.28;;;6.70;99.90;;;;;;13386687;26;20008;-80
2024/04/19 08:20:05;;;;;;;6.85;5.38;;;6.70;99.90;;;;;;13415475;26;20695;-77
2024/04/19 08:26:08;;;;;;;6.32;5.82;;;6.90;99.90;;;;;;13409178;26;20015;-80
2024/04/19 08:32:10;;;;;;;5.80;5.28;;;6.90;99.90;;;;;;13370842;26;20007;-80
2024/04/19 08:38:12;;;;;;;7.28;6.50;;;7.00;99.90;;;;;;13379719;26;20023;-78
2024/04/19 08:44:16;;;;;;;7.75;6.28;;;7.30;99.90;;;;;;13403930;26;20336;-77
2024/04/19 08:50:18;;;;;;;5.77;5.27;;;7.60;99.90;;;;;;13367671;26;20027;-78
2024/04/19 08:56:24;;;;;;;7.07;6.00;;;8.10;99.90;;;;;;13373550;26;20004;-78
2024/04/19 09:02:26;;;;;;;7.63;6.93;;;8.60;99.90;;;;;;13399671;26;20020;-77
2024/04/19 09:08:29;;;;;;;9.43;8.52;;;8.80;99.90;;;;;;13370504;26;20007;-78
2024/04/19 09:14:31;;;;;;;11.15;10.35;;;8.80;99.90;;;;;;13356649;26;20007;-78
2024/04/19 09:20:34;;;;;;;10.02;9.10;;;8.60;99.90;;;;;;13380854;26;20007;-77
2024/04/19 09:26:37;;;;;;;10.18;9.43;;;8.50;99.90;;;;;;13366145;26;20016;-79
2024/04/19 09:32:39;;;;;;;10.13;9.32;;;8.60;99.90;;;;;;13376553;26;20015;-79
2024/04/19 09:38:42;;;;;;;7.43;6.72;;;8.80;99.90;;;;;;13378534;26;20370;-80
2024/04/19 09:44:49;;;;;;;6.18;5.63;;;8.60;99.90;;;;;;13368402;26;20007;-79
2024/04/19 09:50:57;;;;;;;6.28;5.72;;;8.60;99.90;;;;;;13397352;26;20003;-80
2024/04/19 09:57:00;;;;;;;5.18;4.75;;;8.70;99.90;;;;;;13375362;26;20008;-79
2024/04/19 10:03:09;;;;;;;6.40;3.97;;;8.90;99.90;;;;;;13394214;26;20463;-84
2024/04/19 10:09:25;;;;;;;5.15;4.53;;;9.00;99.90;;;;;;13365160;26;20041;-79
2024/04/19 10:15:28;;;;;;;4.28;2.97;;;9.20;99.90;;;;;;13401989;26;20023;-83
2024/04/19 10:21:36;;;;;;;7.55;3.50;;;9.20;99.90;;;;;;13366634;26;20007;-80
2024/04/19 10:27:39;;;;;;;8.93;2.78;;;9.30;99.90;;;;;;13399457;26;20008;-79
2024/04/19 10:33:42;;;;;;;7.97;4.00;;;9.70;99.90;;;;;;13397526;26;20059;-77
2024/04/19 10:39:44;;;;;;;6.03;3.65;;;9.70;99.90;;;;;;13407211;26;20007;-76
2024/04/19 10:45:51;;;;;;;8.27;2.80;;;9.70;99.90;;;;;;13379311;26;20018;-81
2024/04/19 10:51:54;;;;;;;5.50;2.95;;;9.50;99.90;;;;;;13395948;26;20019;-79
2024/04/19 10:57:56;;;;;;;6.60;2.70;;;10.00;99.90;;;;;;13389890;26;20256;-77
2024/04/19 11:03:59;;;;;;;5.85;2.58;;;10.00;99.90;;;;;;13431041;26;20343;-79
2024/04/19 11:10:04;;;;;;;4.57;2.27;;;9.60;99.90;;;;;;13433431;26;20011;-76
2024/04/19 11:16:06;;;;;;;3.50;1.42;;;9.30;99.90;;;;;;13446735;26;20018;-78
2024/04/19 11:22:09;;;;;;;3.35;1.30;;;9.10;99.90;;;;;;13424120;26;20019;-77
2024/04/19 11:28:12;;;;;;;2.67;1.27;;;9.20;99.90;;;;;;13377661;26;20019;-78
2024/04/19 11:34:14;;;;;;;4.10;1.65;;;9.50;99.90;;;;;;13387608;26;20042;-81
2024/04/19 11:40:21;;;;;;;5.18;1.30;;;9.70;99.90;;;;;;13416558;26;20344;-76
2024/04/19 11:46:28;;;;;;;6.93;1.73;;;9.90;99.90;;;;;;13390893;26;20042;-85
2024/04/19 11:52:32;;;;;;;3.33;2.00;;;9.90;99.90;;;;;;13392103;26;20023;-82
2024/04/19 11:58:34;;;;;;;4.85;2.20;;;9.20;99.90;;;;;;13431923;26;20004;-81
2024/04/19 12:04:36;;;;;;;3.53;2.00;;;9.00;99.90;;;;;;13421707;26;20011;-78
2024/04/19 12:10:47;;;;;;;3.33;1.98;;;9.20;99.90;;;;;;13420673;26;20019;-77
2024/04/19 12:16:49;;;;;;;6.53;2.60;;;9.70;99.90;;;;;;13417299;26;20011;-78
2024/04/19 12:23:03;;;;;;;4.50;2.30;;;9.80;99.90;;;;;;13419289;26;20011;-84
2024/04/19 12:29:09;;;;;;;4.80;1.35;;;9.80;99.90;;;;;;13417163;26;20327;-78
2024/04/19 12:35:15;;;;;;;2.45;1.20;;;10.00;99.90;;;;;;13379901;26;20364;-80
2024/04/19 12:41:19;;;;;;;2.40;1.80;;;9.90;99.90;;;;;;13434730;26;20022;-85
2024/04/19 12:47:21;;;;;;;2.63;2.00;;;9.20;99.90;;;;;;13421860;26;20011;-84
2024/04/19 12:53:24;;;;;;;2.50;1.33;;;7.80;99.90;;;;;;13451733;26;20017;-82
2024/04/19 12:59:27;;;;;;;1.17;1.08;;;7.20;99.90;;;;;;13424353;26;20019;-84
2024/04/19 13:05:30;;;;;;;2.20;1.05;;;7.10;99.90;;;;;;13461842;26;20018;-86
2024/04/19 13:11:32;;;;;;;2.15;1.20;;;7.10;99.90;;;;;;13434411;26;19996;-85
2024/04/19 13:17:37;;;;;;;2.08;1.02;;;7.10;99.90;;;;;;13458165;26;19991;-85
2024/04/19 13:23:41;;;;;;;1.20;0.98;;;7.20;99.90;;;;;;13438249;26;20015;-83
2024/04/19 13:29:44;;;;;;;2.03;1.30;;;7.30;99.90;;;;;;13449293;26;20015;-83
2024/04/19 13:35:46;;;;;;;1.63;1.20;;;7.50;99.90;;;;;;13427385;26;20499;-83
2024/04/19 13:41:49;;;;;;;6.50;1.40;;;7.60;99.90;;;;;;13381239;26;20007;-82
2024/04/19 13:47:52;;;;;;;3.65;1.58;;;7.50;99.90;;;;;;13404622;26;20050;-81
2024/04/19 13:53:58;;;;;;;1.88;1.13;;;7.50;99.90;;;;;;13380051;26;20069;-81
2024/04/19 14:00:00;;;;;;;3.80;1.17;;;7.50;99.90;;;;;;13385306;26;20007;-84
2024/04/19 14:06:03;;;;;;;3.35;1.10;;;7.60;99.90;;;;;;13416064;26;20026;-83
2024/04/19 14:12:05;;;;;;;2.95;1.20;;;7.90;99.90;;;;;;13392363;26;20011;-81
2024/04/19 14:18:10;;;;;;;2.47;1.00;;;8.20;99.90;;;;;;13420665;26;20003;-83
2024/04/19 14:24:13;;;;;;;4.13;1.50;;;8.30;99.90;;;;;;13385627;26;20008;-81
2024/04/19 14:30:16;;;;;;;3.97;1.80;;;8.70;99.90;;;;;;13398264;26;20003;-81
2024/04/19 14:36:18;;;;;;;5.57;1.60;;;9.20;99.90;;;;;;13398663;26;20007;-81
2024/04/19 14:42:24;;;;;;;4.95;1.15;;;8.90;99.90;;;;;;13397011;26;20018;-80
2024/04/19 14:48:29;;;;;;;5.18;1.35;;;8.80;99.90;;;;;;13398438;26;20045;-84
2024/04/19 14:54:31;;;;;;;3.38;1.50;;;8.80;99.90;;;;;;13446380;26;20000;-85
2024/04/19 15:00:34;;;;;;;5.43;1.45;;;7.50;99.90;;;;;;13400072;26;20440;-81
2024/04/19 15:06:37;;;;;;;3.50;1.48;;;6.90;99.90;;;;;;13417143;26;21534;-80
2024/04/19 15:12:41;;;;;;;8.43;2.28;;;7.00;99.90;;;;;;13392699;26;20018;-82
2024/04/19 15:18:44;;;;;;;5.60;2.03;;;7.30;99.90;;;;;;13409828;26;20011;-78
2024/04/19 15:24:47;;;;;;;4.68;1.40;;;7.70;99.90;;;;;;13403952;26;20022;-79
2024/04/19 15:30:49;;;;;;;6.97;1.50;;;8.40;99.90;;;;;;13414015;26;20801;-79
2024/04/19 15:36:52;;;;;;;6.18;1.63;;;8.00;99.90;;;;;;13424166;26;20072;-80
2024/04/19 15:42:54;;;;;;;6.70;1.45;;;7.90;99.90;;;;;;13404877;26;20480;-80
2024/04/19 15:48:57;;;;;;;6.55;1.05;;;8.10;99.90;;;;;;13381384;26;20548;-81
2024/04/19 15:54:59;;;;;;;5.90;1.38;;;8.50;99.90;;;;;;13368383;26;21037;-80
2024/04/19 16:01:06;;;;;;;4.78;1.45;;;8.70;99.90;;;;;;13376484;26;20003;-80
2024/04/19 16:07:09;;;;;;;7.13;1.50;;;8.80;99.90;;;;;;13372676;26;20023;-79
2024/04/19 16:13:11;;;;;;;7.80;1.85;;;9.40;99.90;;;;;;13358038;26;20023;-80
2024/04/19 16:19:16;;;;;;;7.38;1.77;;;9.60;99.90;;;;;;13412730;26;20341;-80
2024/04/19 16:25:18;;;;;;;4.32;1.05;;;9.20;99.90;;;;;;13385186;26;20507;-80
2024/04/19 16:31:20;;;;;;;9.45;1.90;;;8.90;99.90;;;;;;13383584;26;20019;-82
2024/04/19 16:37:25;;;;;;;4.70;1.05;;;8.60;99.90;;;;;;13396015;26;20004;-81
2024/04/19 16:43:30;;;;;;;5.43;1.40;;;8.70;99.90;;;;;;13387591;26;20653;-80
2024/04/19 16:49:34;;;;;;;3.97;1.17;;;8.60;99.90;;;;;;13391737;26;20107;-80
2024/04/19 16:55:36;;;;;;;6.13;1.27;;;8.10;99.90;;;;;;13391975;26;20003;-80
2024/04/19 17:01:43;;;;;;;3.45;0.70;;;7.80;99.90;;;;;;13420098;26;20003;-85
2024/04/19 17:07:53;;;;;;;3.45;0.88;;;7.80;99.90;;;;;;13386188;26;20016;-81
2024/04/19 17:13:58;;;;;;;4.20;0.85;;;7.70;99.90;;;;;;13388731;26;20018;-80
2024/04/19 17:20:07;;;;;;;1.45;0.70;;;7.80;99.90;;;;;;13411410;26;20048;-82
2024/04/19 17:26:09;;;;;;;5.10;0.80;;;7.70;99.90;;;;;;13391816;26;20023;-81
2024/04/19 17:32:11;;;;;;;3.15;0.70;;;7.60;99.90;;;;;;13433247;26;20011;-80
2024/04/19 17:38:14;;;;;;;6.10;1.10;;;7.50;99.90;;;;;;13374777;26;20020;-85
2024/04/19 17:44:19;;;;;;;1.48;0.75;;;7.50;99.90;;;;;;13412076;26;20494;-79
2024/04/19 17:50:21;;;;;;;4.75;1.05;;;7.40;99.90;;;;;;13369424;26;20385;-80
2024/04/19 17:56:23;;;;;;;1.95;0.80;;;7.40;99.90;;;;;;13370152;26;20051;-79
2024/04/19 18:02:25;;;;;;;4.82;0.80;;;7.40;99.90;;;;;;13376697;26;20008;-79
2024/04/19 18:08:27;;;;;;;1.67;0.60;;;7.30;99.90;;;;;;13371601;26;20026;-81
2024/04/19 18:14:30;;;;;;;3.42;0.80;;;7.40;99.90;;;;;;13372912;26;20012;-78
2024/04/19 18:20:38;;;;;;;4.18;1.05;;;7.40;99.90;;;;;;13378805;26;20011;-78
2024/04/19 18:26:41;;;;;;;2.42;1.00;;;7.30;99.90;;;;;;13401938;26;20007;-79
2024/04/19 18:32:44;;;;;;;1.67;1.42;;;7.30;99.90;;;;;;13404407;26;20003;-82
2024/04/19 18:38:46;;;;;;;3.83;1.33;;;7.20;99.90;;;;;;13368236;26;20463;-78
2024/04/19 18:44:51;;;;;;;9.48;1.00;;;7.10;99.90;;;;;;13387300;26;20015;-81
2024/04/19 18:50:54;;;;;;;2.53;0.90;;;7.40;99.90;;;;;;13411871;26;20007;-81
2024/04/19 18:57:00;;;;;;;1.95;1.08;;;7.20;99.90;;;;;;13384294;26;20011;-86
2024/04/19 19:03:02;;;;;;;2.08;1.20;;;7.20;99.90;;;;;;13416754;26;20064;-81
2024/04/19 19:09:06;;;;;;;1.90;1.10;;;7.30;99.90;;;;;;13411406;26;20023;-82
2024/04/19 19:15:14;;;;;;;2.33;1.58;;;7.30;99.90;;;;;;13375341;26;20043;-80
2024/04/19 19:21:17;;;;;;;4.65;2.33;;;7.20;99.90;;;;;;13383986;26;20831;-85
2024/04/19 19:27:19;;;;;;;2.90;1.58;;;7.20;99.90;;;;;;13381320;26;20018;-83
2024/04/19 19:33:21;;;;;;;1.50;0.90;;;7.30;99.90;;;;;;13400407;26;20008;-78
2024/04/19 19:39:24;;;;;;;1.27;0.90;;;7.10;99.90;;;;;;13403787;26;20011;-80
2024/04/19 19:45:26;;;;;;;4.43;1.52;;;7.10;99.90;;;;;;13378539;26;20451;-78
2024/04/19 19:51:28;;;;;;;2.47;1.10;;;7.00;99.90;;;;;;13412770;26;20011;-83
2024/04/19 19:57:31;;;;;;;2.85;1.00;;;7.00;99.90;;;;;;13413499;26;20456;-80
2024/04/19 20:09:55;;;;;;;1.77;0.90;;;6.90;99.90;;;;;;13428365;26;20082;-84
2024/04/19 20:15:58;;;;;;;1.83;0.93;;;6.70;99.90;;;;;;13381513;26;20376;-79
2024/04/19 20:22:00;;;;;;;2.17;1.40;;;6.80;99.90;;;;;;13412927;26;20075;-84
2024/04/19 20:28:03;;;;;;;3.40;1.75;;;6.70;99.90;;;;;;13403273;26;20011;-81
2024/04/19 20:34:08;;;;;;;3.17;1.85;;;6.60;99.90;;;;;;13411351;26;20146;-81
2024/04/19 20:40:11;;;;;;;3.85;2.00;;;6.50;99.90;;;;;;13416366;26;20011;-79
2024/04/19 20:46:13;;;;;;;3.53;1.73;;;6.70;99.90;;;;;;13406060;26;20011;-82
2024/04/19 20:52:15;;;;;;;4.30;1.83;;;6.60;99.90;;;;;;13370287;26;20452;-84
2024/04/19 20:58:18;;;;;;;5.13;1.92;;;6.60;99.90;;;;;;13407540;26;20069;-79
2024/04/19 21:04:21;;;;;;;4.85;1.45;;;6.60;99.90;;;;;;13420271;26;20087;-84
2024/04/19 21:10:23;;;;;;;3.30;1.70;;;6.50;99.90;;;;;;13365565;26;20019;-80
2024/04/19 21:16:27;;;;;;;2.83;1.77;;;6.50;99.90;;;;;;13406083;26;20011;-79
2024/04/19 21:22:30;;;;;;;3.50;1.70;;;6.40;99.90;;;;;;13404256;26;20019;-84
2024/04/19 21:28:38;;;;;;;5.80;1.80;;;6.40;99.90;;;;;;13386339;26;20007;-80
2024/04/19 21:34:43;;;;;;;7.07;2.08;;;6.50;99.90;;;;;;13408501;26;20015;-78
2024/04/19 21:40:47;;;;;;;5.10;1.80;;;6.50;99.90;;;;;;13391569;26;20007;-83
2024/04/19 21:46:50;;;;;;;3.53;1.70;;;6.50;99.90;;;;;;13384813;26;20034;-77
2024/04/19 21:52:52;;;;;;;4.25;1.80;;;6.30;99.90;;;;;;13381692;26;20030;-81
2024/04/19 21:58:56;;;;;;;3.17;1.60;;;6.20;99.90;;;;;;13371566;26;20008;-82
2024/04/19 22:04:58;;;;;;;2.70;1.45;;;6.10;99.90;;;;;;13375075;26;20676;-80
2024/04/19 22:11:08;;;;;;;4.57;2.30;;;6.20;99.90;;;;;;13369465;26;20007;-78
2024/04/19 22:17:13;;;;;;;4.18;1.80;;;6.20;99.90;;;;;;13409233;26;20018;-79
2024/04/19 22:23:15;;;;;;;5.70;2.38;;;6.20;99.90;;;;;;13405516;26;20337;-78
2024/04/19 22:29:17;;;;;;;8.82;2.78;;;6.30;99.90;;;;;;13410304;26;20015;-80
2024/04/19 22:35:21;;;;;;;5.72;2.30;;;6.30;99.90;;;;;;13401587;26;20026;-78
2024/04/19 22:41:23;;;;;;;5.28;2.08;;;6.30;99.90;;;;;;13367831;26;20011;-79
2024/04/19 22:47:25;;;;;;;6.68;2.10;;;6.30;99.90;;;;;;13363559;26;20478;-79
2024/04/19 22:53:28;;;;;;;3.35;1.80;;;6.20;99.90;;;;;;13386361;26;20008;-78
2024/04/19 22:59:30;;;;;;;3.78;1.92;;;6.20;99.90;;;;;;13382704;26;20012;-79
2024/04/19 23:05:33;;;;;;;5.55;1.60;;;6.10;99.90;;;;;;13418508;26;20019;-79
2024/04/19 23:11:35;;;;;;;4.15;1.50;;;5.90;99.90;;;;;;13411068;26;20015;-77
2024/04/19 23:17:37;;;;;;;4.10;2.03;;;5.90;99.90;;;;;;13387586;26;20011;-78
2024/04/19 23:23:39;;;;;;;5.15;1.73;;;6.00;99.90;;;;;;13385665;26;20018;-78
2024/04/19 23:29:41;;;;;;;5.05;1.80;;;5.90;99.90;;;;;;13378846;26;20018;-78
2024/04/19 23:35:43;;;;;;;7.50;1.70;;;5.90;99.90;;;;;;13365952;26;20058;-78
2024/04/19 23:41:45;;;;;;;3.35;1.58;;;5.80;99.90;;;;;;13372234;26;20012;-78
2024/04/19 23:47:51;;;;;;;3.55;1.60;;;5.90;99.90;;;;;;13408263;26;20019;-83
2024/04/19 23:53:53;;;;;;;6.82;1.75;;;5.90;99.90;;;;;;13406723;26;20019;-77
2024/04/19 23:59:55;;;;;;;3.40;1.58;;;5.80;99.90;;;;;;13373244;26;20340;-77
